Time;durP1;ratioP1;P1;durP2;ratioP2;P2;SDS_P1;SDS_P2;PMS_P1;PMS_P2;Temp;Humidity;BMP_temperature;BMP_pressure;BME280_temperature;BME280_humidity;BME280_pressure;Samples;Min_cycle;Max_cycle;Signal;HPM_P1;HPM_P2
2023/02/28 00:01:08;;;;;;;6.22;4.07;;;;;;;2.88;100.00;103098.41;10209233;28;20056;-71
2023/02/28 00:06:05;;;;;;;7.63;4.00;;;;;;;2.70;100.00;103102.53;10212914;28;20183;-71
2023/02/28 00:11:08;;;;;;;6.63;4.15;;;;;;;2.35;100.00;103087.53;10213879;28;20046;-71
2023/02/28 00:16:09;;;;;;;7.07;4.38;;;;;;;2.31;100.00;103098.72;10212238;28;20091;-71
2023/02/28 00:21:06;;;;;;;8.50;4.97;;;;;;;2.34;100.00;103102.06;10217252;28;20098;-71
2023/02/28 00:26:03;;;;;;;8.15;5.30;;;;;;;2.30;100.00;103105.16;10203731;28;20056;-71
2023/02/28 00:30:59;;;;;;;8.82;4.88;;;;;;;2.21;100.00;103105.56;10212083;28;20048;-71
2023/02/28 00:36:07;;;;;;;7.82;4.70;;;;;;;2.23;100.00;103098.91;10212987;28;20045;-71
2023/02/28 00:41:04;;;;;;;8.75;4.63;;;;;;;2.25;100.00;103098.69;10207087;28;20054;-71
2023/02/28 00:46:02;;;;;;;11.18;4.63;;;;;;;2.27;100.00;103102.84;10208427;28;20056;-71
2023/02/28 00:50:58;;;;;;;6.30;4.22;;;;;;;2.29;100.00;103105.38;10211683;28;20528;-71
2023/02/28 00:55:55;;;;;;;10.20;4.35;;;;;;;2.23;100.00;103107.03;10230170;28;20503;-71
2023/02/28 01:00:53;;;;;;;6.90;3.97;;;;;;;2.17;100.00;103107.00;10214531;28;20537;-71
2023/02/28 01:05:50;;;;;;;6.75;3.90;;;;;;;2.07;100.00;103115.47;10213390;28;20041;-71
2023/02/28 01:10:47;;;;;;;7.88;4.07;;;;;;;2.06;100.00;103121.91;10216490;28;20128;-71
2023/02/28 01:15:52;;;;;;;5.47;3.95;;;;;;;2.00;100.00;103117.31;10224855;28;20064;-71
2023/02/28 01:20:49;;;;;;;7.07;4.13;;;;;;;1.98;100.00;103119.38;10214634;28;20041;-71
2023/02/28 01:25:45;;;;;;;5.93;3.80;;;;;;;2.01;100.00;103129.78;10209917;28;20100;-71
2023/02/28 01:30:42;;;;;;;7.07;3.65;;;;;;;2.07;100.00;103128.97;10211022;28;20393;-71
2023/02/28 01:35:38;;;;;;;9.30;4.60;;;;;;;2.09;100.00;103121.50;10201435;28;20553;-71
2023/02/28 01:40:35;;;;;;;7.15;4.18;;;;;;;2.08;100.00;103123.34;10206366;28;20061;-71
2023/02/28 01:45:35;;;;;;;6.22;3.78;;;;;;;2.10;100.00;103112.38;10216759;28;20045;-70
2023/02/28 01:50:39;;;;;;;8.18;4.40;;;;;;;2.15;100.00;103112.59;10213864;28;20046;-70
2023/02/28 01:55:37;;;;;;;8.13;3.75;;;;;;;2.18;100.00;103109.50;10213364;28;20120;-70
2023/02/28 02:00:33;;;;;;;5.95;4.15;;;;;;;2.15;100.00;103109.06;10220721;28;20066;-71
2023/02/28 02:05:31;;;;;;;7.78;4.13;;;;;;;2.15;100.00;103115.28;10213440;28;20050;-70
2023/02/28 02:10:40;;;;;;;6.90;4.25;;;;;;;2.08;100.00;103109.84;10217538;28;20099;-71
2023/02/28 02:15:44;;;;;;;8.32;4.25;;;;;;;2.03;100.00;103108.81;10218094;28;20507;-70
2023/02/28 02:21:08;;;;;;;6.38;3.95;;;;;;;2.01;100.00;103110.88;10212555;28;20037;-70
2023/02/28 02:26:42;;;;;;;9.07;4.32;;;;;;;1.91;100.00;103118.53;10206724;28;20053;-71
2023/02/28 02:31:52;;;;;;;11.60;4.85;;;;;;;1.77;100.00;103102.28;10203597;28;20037;-71
2023/02/28 02:37:15;;;;;;;9.98;4.85;;;;;;;1.68;100.00;103114.25;10212055;28;20042;-71
2023/02/28 02:42:19;;;;;;;6.40;4.20;;;;;;;1.40;100.00;103096.25;10212290;28;20672;-71
2023/02/28 02:47:19;;;;;;;7.28;4.75;;;;;;;1.12;100.00;103098.16;10222865;28;20414;-71
2023/02/28 02:52:21;;;;;;;9.55;4.47;;;;;;;0.90;100.00;103100.88;10209982;28;20132;-71
2023/02/28 02:57:29;;;;;;;11.30;5.47;;;;;;;0.71;100.00;103106.91;10210015;28;20078;-70
2023/02/28 03:02:28;;;;;;;8.48;4.68;;;;;;;0.53;100.00;103100.09;10213898;28;20403;-71
2023/02/28 03:07:25;;;;;;;12.23;4.88;;;;;;;0.41;100.00;103104.34;10206411;28;20061;-71
2023/02/28 03:12:28;;;;;;;8.15;4.70;;;;;;;0.39;100.00;103099.13;10220264;28;20072;-70
2023/02/28 03:17:56;;;;;;;8.85;5.05;;;;;;;0.39;100.00;103114.47;10224634;28;20041;-70
2023/02/28 03:23:14;;;;;;;8.05;4.93;;;;;;;0.28;100.00;103107.75;10224784;28;20486;-70
2023/02/28 03:28:36;;;;;;;7.70;5.03;;;;;;;0.29;100.00;103117.47;10225345;28;20049;-71
2023/02/28 03:33:39;;;;;;;10.25;6.20;;;;;;;0.22;100.00;103113.03;10216785;28;20552;-71
2023/02/28 03:38:44;;;;;;;9.75;5.50;;;;;;;0.15;100.00;103124.56;10224866;28;20124;-71
2023/02/28 03:43:48;;;;;;;11.00;6.40;;;;;;;0.10;100.00;103118.91;10215121;28;20419;-70
2023/02/28 03:48:53;;;;;;;9.10;5.78;;;;;;;0.00;100.00;103118.38;10227370;28;20049;-70
2023/02/28 03:54:01;;;;;;;9.98;6.13;;;;;;;-0.05;100.00;103124.34;10229972;28;20655;-71
2023/02/28 03:59:12;;;;;;;9.38;6.60;;;;;;;-0.17;100.00;103133.03;10227230;28;20054;-70
2023/02/28 04:04:11;;;;;;;9.18;6.28;;;;;;;-0.35;100.00;103128.88;10221692;28;20104;-71
2023/02/28 04:09:09;;;;;;;11.02;6.40;;;;;;;-0.41;100.00;103134.19;10213176;28;20120;-71
2023/02/28 04:14:07;;;;;;;15.93;7.55;;;;;;;-0.50;100.00;103131.56;10206950;28;20049;-71
2023/02/28 04:19:05;;;;;;;10.40;6.93;;;;;;;-0.55;100.00;103133.97;10219940;28;20054;-71
2023/02/28 04:24:03;;;;;;;7.70;6.53;;;;;;;-0.68;100.00;103134.59;10225091;28;20091;-71
2023/02/28 04:29:00;;;;;;;7.95;6.88;;;;;;;-0.77;100.00;103141.06;10217139;28;20427;-71
2023/02/28 04:33:57;;;;;;;13.30;7.25;;;;;;;-0.86;100.00;103143.00;10215130;28;20049;-71
2023/02/28 04:38:53;;;;;;;14.90;7.20;;;;;;;-0.90;100.00;103135.50;10220471;28;20048;-71
2023/02/28 04:43:53;;;;;;;10.85;7.60;;;;;;;-0.94;100.00;103139.56;10222719;28;20514;-71
2023/02/28 04:48:49;;;;;;;10.98;7.72;;;;;;;-0.99;100.00;103147.34;10214559;28;20044;-71
2023/02/28 04:53:48;;;;;;;12.55;7.72;;;;;;;-1.03;100.00;103146.84;10224982;28;20511;-71
2023/02/28 04:58:45;;;;;;;12.82;7.80;;;;;;;-1.12;100.00;103147.94;10224773;28;20041;-71
2023/02/28 05:03:42;;;;;;;10.32;8.23;;;;;;;-1.16;100.00;103152.84;10232587;28;20510;-72
2023/02/28 05:08:39;;;;;;;11.10;7.95;;;;;;;-1.19;100.00;103147.81;10212105;28;20049;-71
2023/02/28 05:13:35;;;;;;;11.63;8.05;;;;;;;-1.28;100.00;103154.25;10208834;28;20053;-71
2023/02/28 05:18:32;;;;;;;10.55;8.77;;;;;;;-1.24;100.00;103155.56;10215771;28;20042;-71
2023/02/28 05:23:29;;;;;;;14.50;8.25;;;;;;;-1.26;100.00;103165.66;10215035;28;20042;-71
2023/02/28 05:28:25;;;;;;;12.25;8.27;;;;;;;-1.32;100.00;103158.31;10207721;28;20100;-70
2023/02/28 05:33:22;;;;;;;10.38;9.25;;;;;;;-1.35;100.00;103172.09;10214795;28;20553;-70
2023/02/28 05:38:18;;;;;;;10.38;9.20;;;;;;;-1.38;100.00;103175.13;10221644;28;20051;-71
2023/02/28 05:43:14;;;;;;;12.15;9.50;;;;;;;-1.38;100.00;103172.44;10220245;28;20045;-71
2023/02/28 05:48:11;;;;;;;12.90;9.38;;;;;;;-1.42;100.00;103158.53;10220606;28;20071;-71
2023/02/28 05:53:08;;;;;;;10.25;9.00;;;;;;;-1.42;100.00;103169.28;10219178;28;20038;-71
2023/02/28 05:58:04;;;;;;;14.63;10.30;;;;;;;-1.43;100.00;103180.19;10217346;28;20408;-71
2023/02/28 06:03:01;;;;;;;11.60;9.40;;;;;;;-1.49;100.00;103179.88;10213138;28;20056;-71
2023/02/28 06:07:58;;;;;;;13.48;9.88;;;;;;;-1.53;100.00;103178.56;10220315;28;20117;-71
2023/02/28 06:12:55;;;;;;;12.05;9.32;;;;;;;-1.53;100.00;103189.31;10213029;28;20078;-71
2023/02/28 06:17:52;;;;;;;14.65;10.27;;;;;;;-1.53;100.00;103189.31;10209677;28;20121;-71
2023/02/28 06:22:50;;;;;;;11.27;10.05;;;;;;;-1.56;100.00;103200.38;10212378;28;20041;-71
2023/02/28 06:27:48;;;;;;;13.18;10.55;;;;;;;-1.56;100.00;103189.63;10213242;28;20103;-71
2023/02/28 06:32:44;;;;;;;17.25;11.35;;;;;;;-1.56;100.00;103200.38;10211065;28;20049;-71
2023/02/28 06:37:41;;;;;;;12.65;11.18;;;;;;;-1.54;100.00;103211.78;10208118;28;20109;-71
2023/02/28 06:42:38;;;;;;;16.15;11.10;;;;;;;-1.48;100.00;103208.41;10208467;28;20073;-71
2023/02/28 06:47:36;;;;;;;12.55;11.13;;;;;;;-1.42;100.00;103209.53;10218871;28;20500;-72
2023/02/28 06:52:35;;;;;;;12.90;11.70;;;;;;;-1.46;100.00;103215.41;10221175;28;20068;-71
2023/02/28 06:57:34;;;;;;;14.10;11.05;;;;;;;-1.41;100.00;103218.44;10230482;28;20124;-71
2023/02/28 07:02:31;;;;;;;13.55;11.43;;;;;;;-1.31;100.00;103208.28;10213006;28;20410;-71
2023/02/28 07:07:28;;;;;;;18.70;11.43;;;;;;;-1.27;100.00;103220.34;10209010;28;20049;-71
2023/02/28 07:12:24;;;;;;;13.25;11.18;;;;;;;-1.33;100.00;103221.88;10210304;28;20574;-71
2023/02/28 07:17:20;;;;;;;18.10;11.65;;;;;;;-1.29;100.00;103217.84;10215246;28;20049;-71
2023/02/28 07:22:17;;;;;;;19.02;12.55;;;;;;;-1.22;100.00;103220.66;10210202;28;20452;-71
2023/02/28 07:27:23;;;;;;;18.88;12.25;;;;;;;-1.13;100.00;103227.66;10214374;28;20092;-72
2023/02/28 07:32:20;;;;;;;17.08;11.90;;;;;;;-1.13;100.00;103222.28;10211299;28;20046;-71
2023/02/28 07:37:16;;;;;;;17.42;11.63;;;;;;;-0.94;100.00;103214.75;10215124;28;20041;-71
2023/02/28 07:42:13;;;;;;;24.35;12.40;;;;;;;-0.90;100.00;103221.44;10202239;28;20504;-71
2023/02/28 07:47:10;;;;;;;75.45;18.70;;;;;;;-0.79;100.00;103223.72;10220464;28;20343;-71
2023/02/28 07:52:06;;;;;;;145.32;24.40;;;;;;;-0.74;100.00;103225.84;10208080;28;20085;-71
2023/02/28 07:57:03;;;;;;;108.47;23.63;;;;;;;-0.64;100.00;103227.25;10205905;28;20507;-71
2023/02/28 08:01:59;;;;;;;32.38;12.13;;;;;;;-0.54;100.00;103231.56;10221407;28;20049;-71
2023/02/28 08:06:56;;;;;;;31.25;12.60;;;;;;;-0.40;100.00;103232.59;10219448;28;20041;-71
2023/02/28 08:11:52;;;;;;;16.52;11.82;;;;;;;-0.30;100.00;103234.03;10225545;28;20473;-71
2023/02/28 08:16:49;;;;;;;20.08;11.75;;;;;;;-0.09;100.00;103235.16;10208563;28;20049;-71
2023/02/28 08:21:45;;;;;;;19.55;11.63;;;;;;;0.05;100.00;103231.63;10210425;28;20068;-71
2023/02/28 08:26:42;;;;;;;20.08;12.55;;;;;;;0.19;100.00;103233.47;10213649;28;20095;-71
2023/02/28 08:31:38;;;;;;;17.55;12.10;;;;;;;0.38;100.00;103231.22;10224648;28;20045;-71
2023/02/28 08:36:35;;;;;;;17.65;11.55;;;;;;;0.61;100.00;103234.63;10221335;28;20037;-71
2023/02/28 08:41:32;;;;;;;18.38;11.77;;;;;;;0.82;100.00;103227.59;10214954;28;20519;-70
2023/02/28 08:46:28;;;;;;;15.25;10.60;;;;;;;0.98;100.00;103221.97;10219642;28;20065;-70
2023/02/28 08:51:27;;;;;;;13.15;10.57;;;;;;;1.16;100.00;103217.97;10213545;28;20133;-71
2023/02/28 08:56:25;;;;;;;18.20;11.68;;;;;;;1.38;100.00;103222.31;10230215;28;20049;-71
2023/02/28 09:01:27;;;;;;;11.85;9.30;;;;;;;1.78;100.00;103227.19;10224183;28;20663;-70
2023/02/28 09:06:24;;;;;;;;;;;;;;;2.03;100.00;103214.06;10225295;28;20042;-70
2023/02/28 09:11:21;;;;;;;10.10;8.05;;;;;;;2.26;100.00;103225.38;10214101;28;20213;-71
2023/02/28 09:16:17;;;;;;;8.90;7.97;;;;;;;2.52;100.00;103213.84;10207106;28;20053;-71
2023/02/28 09:21:17;;;;;;;7.85;7.05;;;;;;;2.72;100.00;103213.09;10220626;28;20495;-71
2023/02/28 09:26:19;;;;;;;13.38;6.70;;;;;;;2.76;100.00;103214.34;10215398;28;20073;-71
2023/02/28 09:31:21;;;;;;;8.55;7.03;;;;;;;2.94;100.00;103216.47;10220077;28;20049;-71
2023/02/28 09:36:18;;;;;;;;;;;;;;;3.24;100.00;103216.09;10218315;28;20046;-71
2023/02/28 09:41:16;;;;;;;7.57;6.72;;;;;;;3.56;100.00;103209.84;10214364;28;19921;-71
2023/02/28 09:46:29;;;;;;;7.30;6.57;;;;;;;3.86;100.00;103213.97;10235348;28;20049;-71
2023/02/28 09:51:59;;;;;;;7.80;6.93;;;;;;;4.26;100.00;103230.91;10213023;28;22112;-70
2023/02/28 09:57:05;;;;;;;10.10;6.80;;;;;;;4.58;100.00;103221.00;10210899;28;20041;-71
2023/02/28 10:02:52;;;;;;;7.13;6.38;;;;;;;4.74;100.00;103225.06;10211727;28;20045;-71
2023/02/28 10:08:05;;;;;;;6.45;5.85;;;;;;;4.78;100.00;103223.59;10192995;28;20183;-71
2023/02/28 10:13:06;;;;;;;8.82;6.03;;;;;;;5.72;100.00;103212.84;10210652;28;20048;-71
2023/02/28 10:18:12;;;;;;;6.35;5.75;;;;;;;6.13;100.00;103216.00;10210239;28;20551;-71
2023/02/28 10:23:16;;;;;;;7.22;6.45;;;;;;;6.26;100.00;103213.13;10210115;28;20100;-71
2023/02/28 10:28:16;;;;;;;9.45;6.60;;;;;;;6.09;100.00;103210.19;10215599;28;20057;-71
2023/02/28 10:33:23;;;;;;;8.15;7.35;;;;;;;6.52;100.00;103211.94;10219958;28;20045;-70
2023/02/28 10:38:24;;;;;;;7.47;6.32;;;;;;;6.49;100.00;103213.25;10209727;28;20045;-71
2023/02/28 10:43:22;;;;;;;6.72;6.13;;;;;;;6.09;100.00;103213.72;10208928;28;20037;-71
2023/02/28 10:48:19;;;;;;;7.25;6.20;;;;;;;5.89;100.00;103213.94;10218509;28;20128;-71
2023/02/28 10:53:24;;;;;;;7.68;6.43;;;;;;;5.99;100.00;103209.91;10214052;28;20088;-71
2023/02/28 10:58:26;;;;;;;7.72;6.93;;;;;;;6.24;100.00;103216.09;10207504;28;20041;-70
2023/02/28 11:03:34;;;;;;;7.30;6.27;;;;;;;6.35;100.00;103217.19;10207952;28;20085;-71
2023/02/28 11:08:31;;;;;;;8.95;6.10;;;;;;;6.51;100.00;103213.84;10206832;28;20479;-71
2023/02/28 11:13:37;;;;;;;9.23;6.32;;;;;;;6.80;100.00;103205.94;10206238;28;20508;-71
2023/02/28 11:18:54;;;;;;;6.78;6.13;;;;;;;6.70;100.00;103217.34;10221932;28;20065;-71
2023/02/28 11:23:58;;;;;;;7.78;6.97;;;;;;;6.35;100.00;103206.31;10216051;28;20045;-71
2023/02/28 11:29:10;;;;;;;6.90;6.30;;;;;;;6.24;100.00;103204.38;10219770;28;20068;-71
2023/02/28 11:34:24;;;;;;;6.70;6.10;;;;;;;6.02;100.00;103202.13;10227349;28;20041;-71
2023/02/28 11:39:21;;;;;;;9.07;7.05;;;;;;;6.86;100.00;103193.28;10223356;28;20457;-71
2023/02/28 11:44:58;;;;;;;6.88;6.03;;;;;;;7.84;100.00;103175.47;10220932;28;20140;-71
2023/02/28 11:50:26;;;;;;;7.13;6.40;;;;;;;8.10;100.00;103185.06;10223979;28;20052;-71
2023/02/28 11:55:28;;;;;;;9.95;6.75;;;;;;;8.14;98.49;103175.31;10210531;28;20768;-70
2023/02/28 12:00:38;;;;;;;9.93;7.38;;;;;;;7.66;98.13;103167.44;10210321;28;20066;-70
2023/02/28 12:05:54;;;;;;;6.63;6.03;;;;;;;7.85;98.08;103154.53;10216487;28;20499;-70
2023/02/28 12:11:09;;;;;;;7.40;6.70;;;;;;;8.37;93.98;103157.22;10217040;28;20046;-70
2023/02/28 12:16:38;;;;;;;12.60;6.93;;;;;;;8.30;96.83;103151.09;10215124;28;20500;-71
2023/02/28 12:22:01;;;;;;;6.40;5.82;;;;;;;8.83;84.01;103142.56;10222737;28;20514;-71
2023/02/28 12:27:00;;;;;;;;;;;;;;;8.99;81.24;103127.28;10215317;28;20628;-71
2023/02/28 12:32:09;;;;;;;8.45;6.57;;;;;;;8.72;74.46;103128.97;10225482;28;19921;-71
2023/02/28 12:37:16;;;;;;;6.47;5.90;;;;;;;11.06;71.24;103113.06;10216579;28;20038;-71
2023/02/28 12:42:28;;;;;;;8.50;6.30;;;;;;;11.42;66.70;103107.78;10214058;28;20467;-71
2023/02/28 12:47:24;;;;;;;9.23;6.75;;;;;;;12.76;64.07;103105.19;10209476;28;20045;-71
2023/02/28 12:52:31;;;;;;;8.50;7.63;;;;;;;13.70;60.08;103092.97;10219174;28;20125;-71
2023/02/28 12:57:34;;;;;;;7.68;6.97;;;;;;;13.13;51.57;103082.09;10214842;28;20652;-71
2023/02/28 13:03:10;;;;;;;7.72;6.80;;;;;;;13.37;47.42;103076.06;10221226;28;20046;-71
2023/02/28 13:08:35;;;;;;;9.65;6.80;;;;;;;15.19;46.17;103077.06;10218794;28;20041;-71
2023/02/28 13:13:34;;;;;;;6.65;6.07;;;;;;;16.14;42.24;103058.78;10216512;28;20057;-71
2023/02/28 13:18:39;;;;;;;7.13;6.15;;;;;;;16.45;40.92;103058.28;10205083;28;20714;-71
2023/02/28 13:23:55;;;;;;;7.18;6.40;;;;;;;15.29;42.58;103063.19;10213706;28;20057;-71
2023/02/28 13:28:53;;;;;;;8.52;6.53;;;;;;;15.10;38.42;103054.81;10206531;28;20045;-71
2023/02/28 13:33:56;;;;;;;7.60;6.63;;;;;;;12.47;46.44;103061.03;10224977;28;20816;-71
2023/02/28 13:39:00;;;;;;;10.63;6.40;;;;;;;12.55;54.10;103051.41;10218474;28;20116;-70
2023/02/28 13:44:28;;;;;;;7.13;6.15;;;;;;;13.51;47.37;103055.13;10208377;28;20450;-71
2023/02/28 13:49:32;;;;;;;6.78;6.07;;;;;;;14.30;47.22;103052.50;10227031;28;20491;-71
2023/02/28 13:54:40;;;;;;;6.50;5.90;;;;;;;15.26;40.55;103047.19;10213136;28;20416;-71
2023/02/28 13:59:58;;;;;;;8.48;6.63;;;;;;;14.58;46.23;103055.59;10214221;28;20112;-71
2023/02/28 14:05:15;;;;;;;7.72;6.15;;;;;;;16.20;35.54;103045.72;10204360;28;20038;-70
2023/02/28 14:10:30;;;;;;;7.60;6.80;;;;;;;14.79;41.82;103051.56;10215404;28;20540;-70
2023/02/28 14:15:32;;;;;;;9.45;6.00;;;;;;;16.19;37.40;103050.41;10211786;28;20049;-71
2023/02/28 14:20:30;;;;;;;;;;;;;;;16.52;35.42;103053.19;10214194;28;20428;-71
2023/02/28 14:25:47;;;;;;;6.40;5.75;;;;;;;15.72;40.12;103057.72;10201238;28;19925;-70
2023/02/28 14:30:57;;;;;;;9.80;6.22;;;;;;;15.40;35.28;103057.53;10215649;28;20161;-71
2023/02/28 14:36:02;;;;;;;9.05;6.57;;;;;;;15.59;35.86;103058.38;10212920;28;20132;-70
2023/02/28 14:41:05;;;;;;;9.82;5.88;;;;;;;14.97;36.56;103049.16;10212157;28;20562;-71
2023/02/28 14:46:06;;;;;;;7.28;6.65;;;;;;;14.99;38.27;103050.53;10214447;28;20517;-70
2023/02/28 14:51:02;;;;;;;6.78;5.93;;;;;;;15.43;37.76;103048.66;10210881;28;20483;-71
2023/02/28 14:56:00;;;;;;;7.30;5.80;;;;;;;15.64;38.52;103055.59;10215802;28;20491;-70
2023/02/28 15:00:59;;;;;;;6.95;6.25;;;;;;;14.85;38.38;103055.06;10213763;28;20492;-71
2023/02/28 15:06:17;;;;;;;6.82;5.97;;;;;;;12.73;38.55;103050.84;10217312;28;20132;-70
2023/02/28 15:11:18;;;;;;;6.78;6.18;;;;;;;13.42;42.13;103046.63;10208546;28;20444;-72
2023/02/28 15:16:22;;;;;;;7.13;5.75;;;;;;;13.75;39.26;103048.97;10211164;28;20050;-71
2023/02/28 15:21:23;;;;;;;6.78;5.93;;;;;;;11.34;44.26;103036.00;10227974;28;20037;-72
2023/02/28 15:26:24;;;;;;;6.80;6.20;;;;;;;10.96;59.29;103034.44;10224176;28;20041;-71
2023/02/28 15:31:31;;;;;;;8.10;6.00;;;;;;;10.38;61.49;103038.91;10210284;28;20052;-71
2023/02/28 15:36:45;;;;;;;6.53;5.93;;;;;;;9.93;62.72;103034.56;10221526;28;20038;-71
2023/02/28 15:41:42;;;;;;;6.43;5.80;;;;;;;9.72;67.88;103026.16;10213678;28;20337;-71
2023/02/28 15:46:43;;;;;;;6.95;6.35;;;;;;;9.27;71.76;103021.78;10226282;28;20049;-71
2023/02/28 15:51:39;;;;;;;6.20;5.60;;;;;;;8.89;81.11;103017.97;10201413;28;20041;-70
2023/02/28 15:56:44;;;;;;;7.00;6.30;;;;;;;8.66;76.74;103024.44;10210189;28;20034;-71
2023/02/28 16:01:40;;;;;;;7.07;5.90;;;;;;;8.40;81.80;103021.31;10210375;28;20392;-71
2023/02/28 16:06:42;;;;;;;6.25;5.65;;;;;;;8.33;90.71;103008.84;10210420;28;20392;-70
2023/02/28 16:11:45;;;;;;;7.05;6.25;;;;;;;8.31;83.65;103013.72;10222456;28;20503;-70
2023/02/28 16:16:43;;;;;;;6.43;5.82;;;;;;;7.86;90.57;103020.00;10208516;28;20051;-70
2023/02/28 16:21:40;;;;;;;8.27;5.35;;;;;;;7.63;84.74;103021.72;10217700;28;20072;-69
2023/02/28 16:26:39;;;;;;;6.90;5.38;;;;;;;7.56;78.89;103021.03;10210682;28;20060;-70
2023/02/28 16:31:37;;;;;;;5.60;5.10;;;;;;;7.23;91.17;103027.97;10223012;28;20041;-70
2023/02/28 16:36:34;;;;;;;6.72;5.90;;;;;;;6.98;100.00;103032.84;10212659;28;20038;-70
2023/02/28 16:41:30;;;;;;;6.43;5.65;;;;;;;6.62;100.00;103026.56;10221084;28;20107;-69
2023/02/28 16:46:33;;;;;;;7.93;7.07;;;;;;;6.34;100.00;103030.78;10205685;28;20565;-70
2023/02/28 16:51:29;;;;;;;9.87;7.27;;;;;;;6.30;97.92;103032.28;10202779;28;20042;-71
2023/02/28 16:56:29;;;;;;;7.90;5.95;;;;;;;5.95;100.00;103038.44;10220391;28;20423;-70
2023/02/28 17:01:27;;;;;;;10.00;6.70;;;;;;;5.66;100.00;103046.31;10213317;28;20121;-70
2023/02/28 17:06:30;;;;;;;6.63;6.07;;;;;;;5.62;100.00;103047.81;10218586;28;20492;-71
2023/02/28 17:11:27;;;;;;;7.25;6.47;;;;;;;5.43;100.00;103056.97;10220236;28;20443;-69
2023/02/28 17:16:35;;;;;;;7.10;6.40;;;;;;;5.20;100.00;103063.91;10217200;28;20045;-70
2023/02/28 17:21:33;;;;;;;7.50;6.35;;;;;;;5.07;100.00;103064.03;10222774;28;20060;-70
2023/02/28 17:26:30;;;;;;;7.40;6.40;;;;;;;4.91;100.00;103065.44;10224336;28;20080;-72
2023/02/28 17:31:29;;;;;;;7.25;6.55;;;;;;;4.67;100.00;103069.81;10211256;28;20172;-69
2023/02/28 17:36:26;;;;;;;7.80;7.00;;;;;;;4.54;100.00;103075.31;10209469;28;20042;-69
2023/02/28 17:41:24;;;;;;;8.07;7.20;;;;;;;4.28;100.00;103076.34;10208787;28;20069;-70
2023/02/28 17:46:23;;;;;;;10.18;8.10;;;;;;;4.18;100.00;103076.81;10214210;28;20049;-69
2023/02/28 17:51:22;;;;;;;7.55;6.85;;;;;;;4.05;100.00;103082.28;10214227;28;20050;-70
2023/02/28 17:56:24;;;;;;;9.20;7.00;;;;;;;3.97;100.00;103086.91;10204318;28;20129;-72
2023/02/28 18:01:22;;;;;;;10.30;7.90;;;;;;;3.86;100.00;103079.47;10215695;28;20534;-72
2023/02/28 18:06:33;;;;;;;8.30;7.13;;;;;;;3.79;100.00;103084.91;10204068;28;20042;-72
2023/02/28 18:11:42;;;;;;;9.48;7.85;;;;;;;3.70;100.00;103085.34;10214348;28;20050;-72
2023/02/28 18:16:38;;;;;;;7.95;6.82;;;;;;;3.55;100.00;103086.44;10206804;28;20057;-71
2023/02/28 18:21:35;;;;;;;8.38;7.20;;;;;;;3.44;100.00;103086.28;10211662;28;20076;-71
2023/02/28 18:26:31;;;;;;;10.23;7.10;;;;;;;3.34;100.00;103092.09;10213240;28;20048;-71
2023/02/28 18:31:28;;;;;;;9.80;7.25;;;;;;;3.24;100.00;103086.31;10223357;28;20049;-71
2023/02/28 18:36:26;;;;;;;11.00;6.90;;;;;;;3.11;100.00;103092.53;10209966;28;20060;-71
2023/02/28 18:41:23;;;;;;;10.77;7.57;;;;;;;3.00;100.00;103085.91;10205592;28;20112;-71
2023/02/28 18:46:20;;;;;;;10.07;7.20;;;;;;;2.96;100.00;103084.66;10220366;28;20559;-71
2023/02/28 18:51:19;;;;;;;8.43;7.07;;;;;;;2.86;100.00;103086.97;10203155;28;20048;-67
2023/02/28 18:56:19;;;;;;;11.52;7.15;;;;;;;2.80;100.00;103094.00;10211955;28;20746;-67
2023/02/28 19:01:19;;;;;;;7.47;6.70;;;;;;;2.73;100.00;103075.09;10203393;28;20078;-67
2023/02/28 19:06:17;;;;;;;8.70;6.60;;;;;;;2.64;100.00;103089.84;10207480;28;20465;-67
2023/02/28 19:11:16;;;;;;;8.07;7.22;;;;;;;2.48;100.00;103082.13;10199909;28;20091;-67
2023/02/28 19:16:15;;;;;;;9.40;7.07;;;;;;;2.47;100.00;103085.88;10205590;28;20072;-67
2023/02/28 19:21:14;;;;;;;10.52;7.53;;;;;;;2.34;100.00;103085.84;10205805;28;20068;-67
2023/02/28 19:26:13;;;;;;;8.55;7.28;;;;;;;2.23;100.00;103093.53;10211227;28;20132;-68
2023/02/28 19:31:19;;;;;;;9.00;7.88;;;;;;;2.16;100.00;103089.97;10212524;28;20052;-67
2023/02/28 19:36:16;;;;;;;12.52;7.95;;;;;;;2.08;100.00;103100.94;10211358;28;20631;-67
2023/02/28 19:41:14;;;;;;;17.75;9.30;;;;;;;1.98;100.00;103105.91;10211059;28;20045;-67
2023/02/28 19:46:11;;;;;;;12.82;8.18;;;;;;;1.88;100.00;103099.00;10204382;28;20503;-67
2023/02/28 19:51:11;;;;;;;14.52;8.25;;;;;;;1.84;100.00;103100.44;10202120;28;20121;-67
2023/02/28 19:56:08;;;;;;;12.52;8.40;;;;;;;1.77;100.00;103112.25;10220464;28;20050;-67
2023/02/28 20:01:07;;;;;;;12.68;8.35;;;;;;;1.67;100.00;103109.88;10210901;28;20046;-67
2023/02/28 20:06:08;;;;;;;10.07;7.50;;;;;;;1.58;100.00;103100.28;10220642;28;20583;-67
2023/02/28 20:11:09;;;;;;;12.48;8.55;;;;;;;1.56;100.00;103105.06;10228448;28;20440;-67
2023/02/28 20:16:08;;;;;;;14.98;8.55;;;;;;;1.46;100.00;103103.56;10218885;28;20050;-67
2023/02/28 20:21:08;;;;;;;13.48;8.45;;;;;;;1.39;100.00;103109.94;10232980;28;20046;-67
2023/02/28 20:26:04;;;;;;;15.13;9.32;;;;;;;1.37;100.00;103106.59;10233424;28;20045;-67
2023/02/28 20:31:01;;;;;;;12.20;8.48;;;;;;;1.19;100.00;103110.63;10231771;28;20609;-67
2023/02/28 20:36:04;;;;;;;14.82;9.38;;;;;;;1.18;100.00;103102.75;10231507;28;20048;-67
2023/02/28 20:41:01;;;;;;;16.67;9.52;;;;;;;1.13;100.00;103106.03;10227657;28;20133;-67
2023/02/28 20:46:00;;;;;;;18.15;8.80;;;;;;;1.07;100.00;103105.97;10223296;28;20041;-66
2023/02/28 20:50:58;;;;;;;16.42;9.18;;;;;;;0.97;100.00;103095.53;10229253;28;20125;-66
2023/02/28 20:55:56;;;;;;;16.88;9.25;;;;;;;0.83;100.00;103102.66;10216700;28;20071;-68
2023/02/28 21:01:24;;;;;;;22.92;9.27;;;;;;;0.87;100.00;103095.88;10230516;28;20092;-69
2023/02/28 21:06:25;;;;;;;15.30;9.73;;;;;;;0.82;100.00;103098.31;10220497;28;20060;-70
2023/02/28 21:11:27;;;;;;;13.73;8.85;;;;;;;0.72;100.00;103103.19;10214948;28;20072;-68
2023/02/28 21:16:25;;;;;;;17.73;9.77;;;;;;;0.73;100.00;103104.88;10209326;28;20045;-67
2023/02/28 21:21:24;;;;;;;18.42;9.40;;;;;;;0.62;100.00;103103.50;10215543;28;20077;-67
2023/02/28 21:26:22;;;;;;;14.50;10.75;;;;;;;0.57;100.00;103106.78;10204663;28;20049;-66
2023/02/28 21:31:20;;;;;;;19.02;9.35;;;;;;;0.55;100.00;103108.84;10200084;28;20128;-66
2023/02/28 21:36:19;;;;;;;19.88;9.57;;;;;;;0.56;100.00;103115.91;10209219;28;20045;-65
2023/02/28 21:41:19;;;;;;;19.15;9.52;;;;;;;0.45;100.00;103119.09;10203638;28;20539;-66
2023/02/28 21:46:19;;;;;;;20.15;10.45;;;;;;;0.43;100.00;103118.44;10212024;28;20046;-67
2023/02/28 21:51:25;;;;;;;19.92;10.02;;;;;;;0.33;100.00;103115.25;10201921;28;20665;-67
2023/02/28 21:56:24;;;;;;;18.75;10.95;;;;;;;0.28;100.00;103114.97;10199233;28;20511;-67
2023/02/28 22:01:21;;;;;;;22.30;11.77;;;;;;;0.25;100.00;103118.03;10224793;28;20068;-67
2023/02/28 22:06:21;;;;;;;20.45;11.05;;;;;;;0.15;100.00;103119.16;10206861;28;20042;-66
2023/02/28 22:11:18;;;;;;;17.98;11.15;;;;;;;0.08;100.00;103118.25;10213656;28;20500;-68
2023/02/28 22:16:18;;;;;;;20.13;10.63;;;;;;;0.03;100.00;103112.63;10203977;28;20050;-68
2023/02/28 22:21:17;;;;;;;20.20;11.60;;;;;;;-0.02;100.00;103109.66;10231033;28;20038;-68
2023/02/28 22:26:19;;;;;;;19.52;10.35;;;;;;;-0.06;100.00;103116.44;10215423;28;20049;-68
2023/02/28 22:31:17;;;;;;;29.95;12.00;;;;;;;-0.06;100.00;103121.81;10222755;28;20045;-66
2023/02/28 22:36:16;;;;;;;21.02;11.38;;;;;;;-0.12;100.00;103122.56;10214392;28;20050;-65
2023/02/28 22:41:13;;;;;;;22.85;12.40;;;;;;;-0.15;100.00;103133.69;10218895;28;20459;-66
2023/02/28 22:46:12;;;;;;;28.52;13.23;;;;;;;-0.17;100.00;103124.97;10218488;28;20057;-67
2023/02/28 22:51:13;;;;;;;23.98;13.60;;;;;;;-0.27;100.00;103131.47;10206064;28;20754;-67
2023/02/28 22:56:11;;;;;;;26.33;13.57;;;;;;;-0.32;100.00;103123.13;10219819;28;20049;-67